sensor_id;sensor_type;location;lat;lon;timestamp;P1;durP1;ratioP1;P2;durP2;ratioP2
29210;SDS011;16250;49.932;10.980;2022-09-01T00:00:43;3.40;;;2.50;;
29210;SDS011;16250;49.932;10.980;2022-09-01T00:03:13;4.43;;;2.72;;
29210;SDS011;16250;49.932;10.980;2022-09-01T00:05:40;2.97;;;2.60;;
29210;SDS011;16250;49.932;10.980;2022-09-01T00:08:06;3.28;;;2.63;;
29210;SDS011;16250;49.932;10.980;2022-09-01T00:10:32;3.15;;;2.85;;
29210;SDS011;16250;49.932;10.980;2022-09-01T00:12:57;3.17;;;2.70;;
29210;SDS011;16250;49.932;10.980;2022-09-01T00:15:24;2.95;;;2.40;;
29210;SDS011;16250;49.932;10.980;2022-09-01T00:17:50;2.95;;;2.70;;
29210;SDS011;16250;49.932;10.980;2022-09-01T00:20:15;4.32;;;3.38;;
29210;SDS011;16250;49.932;10.980;2022-09-01T00:22:42;4.07;;;2.65;;
29210;SDS011;16250;49.932;10.980;2022-09-01T00:25:07;3.75;;;2.90;;
29210;SDS011;16250;49.932;10.980;2022-09-01T00:27:34;5.00;;;3.00;;
29210;SDS011;16250;49.932;10.980;2022-09-01T00:30:00;5.78;;;3.00;;
29210;SDS011;16250;49.932;10.980;2022-09-01T00:32:26;4.45;;;3.00;;
29210;SDS011;16250;49.932;10.980;2022-09-01T00:34:52;3.75;;;2.70;;
29210;SDS011;16250;49.932;10.980;2022-09-01T00:37:18;3.25;;;2.90;;
29210;SDS011;16250;49.932;10.980;2022-09-01T00:39:43;4.82;;;3.08;;
29210;SDS011;16250;49.932;10.980;2022-09-01T00:42:09;3.50;;;2.95;;
29210;SDS011;16250;49.932;10.980;2022-09-01T00:44:35;4.15;;;3.00;;
29210;SDS011;16250;49.932;10.980;2022-09-01T00:47:02;3.85;;;2.58;;
29210;SDS011;16250;49.932;10.980;2022-09-01T00:49:40;3.00;;;2.70;;
29210;SDS011;16250;49.932;10.980;2022-09-01T00:52:13;3.78;;;2.70;;
29210;SDS011;16250;49.932;10.980;2022-09-01T00:54:44;3.70;;;3.08;;
29210;SDS011;16250;49.932;10.980;2022-09-01T00:57:13;3.80;;;2.85;;
29210;SDS011;16250;49.932;10.980;2022-09-01T00:59:45;3.80;;;3.28;;
29210;SDS011;16250;49.932;10.980;2022-09-01T01:02:24;4.43;;;2.80;;
29210;SDS011;16250;49.932;10.980;2022-09-01T01:04:51;3.03;;;2.70;;
29210;SDS011;16250;49.932;10.980;2022-09-01T01:07:17;3.50;;;3.20;;
29210;SDS011;16250;49.932;10.980;2022-09-01T01:09:46;3.35;;;3.05;;
29210;SDS011;16250;49.932;10.980;2022-09-01T01:12:12;4.10;;;3.30;;
29210;SDS011;16250;49.932;10.980;2022-09-01T01:14:41;3.40;;;3.10;;
29210;SDS011;16250;49.932;10.980;2022-09-01T01:17:10;5.55;;;3.60;;
29210;SDS011;16250;49.932;10.980;2022-09-01T01:19:40;4.60;;;3.00;;
29210;SDS011;16250;49.932;10.980;2022-09-01T01:22:33;4.50;;;3.10;;
29210;SDS011;16250;49.932;10.980;2022-09-01T01:28:10;5.45;;;3.10;;
29210;SDS011;16250;49.932;10.980;2022-09-01T01:30:48;5.03;;;3.20;;
29210;SDS011;16250;49.932;10.980;2022-09-01T01:33:37;4.20;;;3.42;;
29210;SDS011;16250;49.932;10.980;2022-09-01T01:36:19;3.40;;;3.03;;
29210;SDS011;16250;49.932;10.980;2022-09-01T01:38:56;3.88;;;2.90;;
29210;SDS011;16250;49.932;10.980;2022-09-01T01:41:26;3.35;;;3.05;;
29210;SDS011;16250;49.932;10.980;2022-09-01T01:43:54;3.80;;;3.40;;
29210;SDS011;16250;49.932;10.980;2022-09-01T01:46:21;5.47;;;3.30;;
29210;SDS011;16250;49.932;10.980;2022-09-01T01:48:46;4.10;;;3.00;;
29210;SDS011;16250;49.932;10.980;2022-09-01T01:51:12;4.50;;;3.40;;
29210;SDS011;16250;49.932;10.980;2022-09-01T01:53:41;5.32;;;3.67;;
29210;SDS011;16250;49.932;10.980;2022-09-01T01:56:07;3.65;;;3.30;;
29210;SDS011;16250;49.932;10.980;2022-09-01T01:58:34;3.83;;;3.42;;
29210;SDS011;16250;49.932;10.980;2022-09-01T02:01:00;4.10;;;3.42;;
29210;SDS011;16250;49.932;10.980;2022-09-01T02:03:30;3.35;;;3.05;;
29210;SDS011;16250;49.932;10.980;2022-09-01T02:06:02;3.50;;;3.20;;
29210;SDS011;16250;49.932;10.980;2022-09-01T02:08:32;3.55;;;3.17;;
29210;SDS011;16250;49.932;10.980;2022-09-01T02:11:00;3.35;;;3.05;;
29210;SDS011;16250;49.932;10.980;2022-09-01T02:13:26;5.72;;;3.38;;
29210;SDS011;16250;49.932;10.980;2022-09-01T02:15:56;3.88;;;3.50;;
29210;SDS011;16250;49.932;10.980;2022-09-01T02:18:27;6.45;;;3.63;;
29210;SDS011;16250;49.932;10.980;2022-09-01T02:20:59;3.53;;;3.20;;
29210;SDS011;16250;49.932;10.980;2022-09-01T02:23:24;3.83;;;3.38;;
29210;SDS011;16250;49.932;10.980;2022-09-01T02:25:52;4.53;;;3.72;;
29210;SDS011;16250;49.932;10.980;2022-09-01T02:28:19;4.57;;;3.30;;
29210;SDS011;16250;49.932;10.980;2022-09-01T02:30:47;4.15;;;3.33;;
29210;SDS011;16250;49.932;10.980;2022-09-01T02:33:19;4.47;;;3.17;;
29210;SDS011;16250;49.932;10.980;2022-09-01T02:35:50;5.22;;;3.75;;
29210;SDS011;16250;49.932;10.980;2022-09-01T02:38:18;5.03;;;3.75;;
29210;SDS011;16250;49.932;10.980;2022-09-01T02:40:45;6.10;;;3.65;;
29210;SDS011;16250;49.932;10.980;2022-09-01T02:43:13;3.92;;;3.55;;
29210;SDS011;16250;49.932;10.980;2022-09-01T02:45:45;6.45;;;3.63;;
29210;SDS011;16250;49.932;10.980;2022-09-01T02:48:23;4.25;;;3.85;;
29210;SDS011;16250;49.932;10.980;2022-09-01T02:50:53;5.03;;;3.63;;
29210;SDS011;16250;49.932;10.980;2022-09-01T02:53:21;3.63;;;3.33;;
29210;SDS011;16250;49.932;10.980;2022-09-01T02:55:46;3.83;;;3.42;;
29210;SDS011;16250;49.932;10.980;2022-09-01T02:58:12;5.38;;;3.40;;
29210;SDS011;16250;49.932;10.980;2022-09-01T03:00:43;4.40;;;3.50;;
29210;SDS011;16250;49.932;10.980;2022-09-01T03:03:09;3.53;;;3.22;;
29210;SDS011;16250;49.932;10.980;2022-09-01T03:05:41;4.13;;;3.72;;
29210;SDS011;16250;49.932;10.980;2022-09-01T03:08:08;4.90;;;3.70;;
29210;SDS011;16250;49.932;10.980;2022-09-01T03:10:39;3.88;;;3.50;;
29210;SDS011;16250;49.932;10.980;2022-09-01T03:13:06;5.55;;;3.88;;
29210;SDS011;16250;49.932;10.980;2022-09-01T03:15:38;3.78;;;3.47;;
29210;SDS011;16250;49.932;10.980;2022-09-01T03:18:05;3.80;;;3.50;;
29210;SDS011;16250;49.932;10.980;2022-09-01T03:20:32;5.68;;;3.72;;
29210;SDS011;16250;49.932;10.980;2022-09-01T03:23:00;4.10;;;3.60;;
29210;SDS011;16250;49.932;10.980;2022-09-01T03:25:27;5.10;;;3.60;;
29210;SDS011;16250;49.932;10.980;2022-09-01T03:27:54;4.80;;;3.40;;
29210;SDS011;16250;49.932;10.980;2022-09-01T03:30:21;3.83;;;3.40;;
29210;SDS011;16250;49.932;10.980;2022-09-01T03:32:47;4.30;;;3.58;;
29210;SDS011;16250;49.932;10.980;2022-09-01T03:35:13;3.90;;;3.35;;
29210;SDS011;16250;49.932;10.980;2022-09-01T03:37:40;6.80;;;3.63;;
29210;SDS011;16250;49.932;10.980;2022-09-01T03:40:08;5.07;;;3.47;;
29210;SDS011;16250;49.932;10.980;2022-09-01T03:42:36;5.85;;;3.75;;
29210;SDS011;16250;49.932;10.980;2022-09-01T03:45:03;4.85;;;3.58;;
29210;SDS011;16250;49.932;10.980;2022-09-01T03:47:34;3.58;;;3.13;;
29210;SDS011;16250;49.932;10.980;2022-09-01T03:50:04;4.85;;;3.40;;
29210;SDS011;16250;49.932;10.980;2022-09-01T03:52:36;4.07;;;3.30;;
29210;SDS011;16250;49.932;10.980;2022-09-01T03:55:03;4.28;;;3.25;;
29210;SDS011;16250;49.932;10.980;2022-09-01T03:57:29;3.55;;;3.10;;
29210;SDS011;16250;49.932;10.980;2022-09-01T03:59:54;3.65;;;3.35;;
29210;SDS011;16250;49.932;10.980;2022-09-01T04:02:21;6.25;;;3.58;;
29210;SDS011;16250;49.932;10.980;2022-09-01T04:04:46;4.80;;;3.70;;
29210;SDS011;16250;49.932;10.980;2022-09-01T04:07:12;5.07;;;3.65;;
29210;SDS011;16250;49.932;10.980;2022-09-01T04:09:38;3.90;;;3.50;;
29210;SDS011;16250;49.932;10.980;2022-09-01T04:12:04;4.10;;;3.40;;
29210;SDS011;16250;49.932;10.980;2022-09-01T04:14:33;4.45;;;3.88;;
29210;SDS011;16250;49.932;10.980;2022-09-01T04:16:59;5.72;;;3.40;;
29210;SDS011;16250;49.932;10.980;2022-09-01T04:19:43;4.88;;;3.80;;
29210;SDS011;16250;49.932;10.980;2022-09-01T04:22:09;3.60;;;3.10;;
29210;SDS011;16250;49.932;10.980;2022-09-01T04:24:38;3.78;;;3.28;;
29210;SDS011;16250;49.932;10.980;2022-09-01T04:27:07;5.05;;;3.67;;
29210;SDS011;16250;49.932;10.980;2022-09-01T04:29:34;4.93;;;3.35;;
29210;SDS011;16250;49.932;10.980;2022-09-01T04:32:05;5.05;;;3.78;;
29210;SDS011;16250;49.932;10.980;2022-09-01T04:34:36;4.40;;;4.00;;
29210;SDS011;16250;49.932;10.980;2022-09-01T04:37:06;4.32;;;3.38;;
29210;SDS011;16250;49.932;10.980;2022-09-01T04:39:33;3.50;;;3.20;;
29210;SDS011;16250;49.932;10.980;2022-09-01T04:42:00;5.47;;;3.70;;
29210;SDS011;16250;49.932;10.980;2022-09-01T04:44:33;5.00;;;3.38;;
29210;SDS011;16250;49.932;10.980;2022-09-01T04:46:59;4.32;;;3.42;;
29210;SDS011;16250;49.932;10.980;2022-09-01T04:49:25;6.03;;;3.65;;
29210;SDS011;16250;49.932;10.980;2022-09-01T04:51:52;4.35;;;3.30;;
29210;SDS011;16250;49.932;10.980;2022-09-01T04:54:18;4.28;;;3.20;;
29210;SDS011;16250;49.932;10.980;2022-09-01T04:56:46;4.18;;;3.47;;
29210;SDS011;16250;49.932;10.980;2022-09-01T04:59:15;4.28;;;3.40;;
29210;SDS011;16250;49.932;10.980;2022-09-01T05:01:44;3.63;;;3.30;;
29210;SDS011;16250;49.932;10.980;2022-09-01T05:04:22;4.95;;;3.42;;
29210;SDS011;16250;49.932;10.980;2022-09-01T05:06:52;5.28;;;3.50;;
29210;SDS011;16250;49.932;10.980;2022-09-01T05:09:24;4.80;;;3.40;;
29210;SDS011;16250;49.932;10.980;2022-09-01T05:11:50;3.60;;;3.30;;
29210;SDS011;16250;49.932;10.980;2022-09-01T05:14:17;4.53;;;3.17;;
29210;SDS011;16250;49.932;10.980;2022-09-01T05:16:43;3.90;;;3.33;;
29210;SDS011;16250;49.932;10.980;2022-09-01T05:19:10;4.38;;;3.70;;
29210;SDS011;16250;49.932;10.980;2022-09-01T05:21:39;4.32;;;3.75;;
29210;SDS011;16250;49.932;10.980;2022-09-01T05:24:20;4.10;;;3.20;;
29210;SDS011;16250;49.932;10.980;2022-09-01T05:26:45;7.18;;;3.30;;
29210;SDS011;16250;49.932;10.980;2022-09-01T05:29:13;3.83;;;3.15;;
29210;SDS011;16250;49.932;10.980;2022-09-01T05:31:45;3.90;;;3.03;;
29210;SDS011;16250;49.932;10.980;2022-09-01T05:34:13;4.20;;;3.25;;
29210;SDS011;16250;49.932;10.980;2022-09-01T05:36:51;4.97;;;3.40;;
29210;SDS011;16250;49.932;10.980;2022-09-01T05:39:18;5.05;;;3.15;;
29210;SDS011;16250;49.932;10.980;2022-09-01T05:41:44;5.13;;;2.90;;
29210;SDS011;16250;49.932;10.980;2022-09-01T05:44:12;4.05;;;3.55;;
29210;SDS011;16250;49.932;10.980;2022-09-01T05:46:39;5.47;;;3.10;;
29210;SDS011;16250;49.932;10.980;2022-09-01T05:49:08;5.13;;;3.65;;
29210;SDS011;16250;49.932;10.980;2022-09-01T05:51:38;5.32;;;3.10;;
29210;SDS011;16250;49.932;10.980;2022-09-01T05:54:06;4.53;;;3.22;;
29210;SDS011;16250;49.932;10.980;2022-09-01T05:56:34;4.97;;;3.47;;
29210;SDS011;16250;49.932;10.980;2022-09-01T05:59:02;5.18;;;3.08;;
29210;SDS011;16250;49.932;10.980;2022-09-01T06:01:28;3.40;;;3.10;;
29210;SDS011;16250;49.932;10.980;2022-09-01T06:03:56;5.30;;;3.47;;
29210;SDS011;16250;49.932;10.980;2022-09-01T06:06:34;6.65;;;3.08;;
29210;SDS011;16250;49.932;10.980;2022-09-01T06:09:04;4.25;;;3.13;;
29210;SDS011;16250;49.932;10.980;2022-09-01T06:11:31;3.88;;;3.03;;
29210;SDS011;16250;49.932;10.980;2022-09-01T06:14:00;3.92;;;2.90;;
29210;SDS011;16250;49.932;10.980;2022-09-01T06:16:27;6.95;;;3.03;;
29210;SDS011;16250;49.932;10.980;2022-09-01T06:18:54;3.17;;;2.80;;
29210;SDS011;16250;49.932;10.980;2022-09-01T06:21:21;3.80;;;2.95;;
29210;SDS011;16250;49.932;10.980;2022-09-01T06:23:48;5.68;;;3.25;;
29210;SDS011;16250;49.932;10.980;2022-09-01T06:26:19;6.15;;;3.15;;
29210;SDS011;16250;49.932;10.980;2022-09-01T06:28:59;3.65;;;2.95;;
29210;SDS011;16250;49.932;10.980;2022-09-01T06:31:29;5.18;;;3.10;;
29210;SDS011;16250;49.932;10.980;2022-09-01T06:34:00;7.32;;;3.00;;
29210;SDS011;16250;49.932;10.980;2022-09-01T06:36:27;4.38;;;2.90;;
29210;SDS011;16250;49.932;10.980;2022-09-01T06:38:56;5.00;;;3.30;;
29210;SDS011;16250;49.932;10.980;2022-09-01T06:41:24;3.40;;;2.92;;
29210;SDS011;16250;49.932;10.980;2022-09-01T06:43:50;3.53;;;2.95;;
29210;SDS011;16250;49.932;10.980;2022-09-01T06:46:18;4.72;;;2.88;;
29210;SDS011;16250;49.932;10.980;2022-09-01T06:48:48;3.53;;;2.90;;
29210;SDS011;16250;49.932;10.980;2022-09-01T06:51:15;3.78;;;2.88;;
29210;SDS011;16250;49.932;10.980;2022-09-01T06:53:43;4.20;;;2.70;;
29210;SDS011;16250;49.932;10.980;2022-09-01T06:56:10;4.43;;;2.80;;
29210;SDS011;16250;49.932;10.980;2022-09-01T06:58:40;3.80;;;2.97;;
29210;SDS011;16250;49.932;10.980;2022-09-01T07:01:11;7.13;;;3.00;;
29210;SDS011;16250;49.932;10.980;2022-09-01T07:03:43;5.25;;;2.60;;
29210;SDS011;16250;49.932;10.980;2022-09-01T07:06:11;3.40;;;2.67;;
29210;SDS011;16250;49.932;10.980;2022-09-01T07:08:38;4.18;;;2.65;;
29210;SDS011;16250;49.932;10.980;2022-09-01T07:11:07;4.22;;;2.60;;
29210;SDS011;16250;49.932;10.980;2022-09-01T07:13:47;3.15;;;2.85;;
29210;SDS011;16250;49.932;10.980;2022-09-01T07:16:17;5.55;;;2.55;;
29210;SDS011;16250;49.932;10.980;2022-09-01T07:18:51;3.13;;;2.50;;
29210;SDS011;16250;49.932;10.980;2022-09-01T07:21:20;3.10;;;2.40;;
29210;SDS011;16250;49.932;10.980;2022-09-01T07:23:46;3.58;;;2.30;;
29210;SDS011;16250;49.932;10.980;2022-09-01T07:26:11;3.03;;;2.50;;
29210;SDS011;16250;49.932;10.980;2022-09-01T07:28:42;4.50;;;2.33;;
29210;SDS011;16250;49.932;10.980;2022-09-01T07:31:15;3.80;;;2.25;;
29210;SDS011;16250;49.932;10.980;2022-09-01T07:33:45;2.40;;;2.10;;
29210;SDS011;16250;49.932;10.980;2022-09-01T07:36:14;2.80;;;2.10;;
29210;SDS011;16250;49.932;10.980;2022-09-01T07:38:40;4.80;;;2.45;;
29210;SDS011;16250;49.932;10.980;2022-09-01T07:41:07;4.75;;;2.33;;
29210;SDS011;16250;49.932;10.980;2022-09-01T07:43:36;2.30;;;2.00;;
29210;SDS011;16250;49.932;10.980;2022-09-01T07:46:08;4.05;;;2.28;;
29210;SDS011;16250;49.932;10.980;2022-09-01T07:48:35;5.22;;;2.70;;
29210;SDS011;16250;49.932;10.980;2022-09-01T07:51:03;2.50;;;2.30;;
29210;SDS011;16250;49.932;10.980;2022-09-01T07:53:30;4.65;;;2.40;;
29210;SDS011;16250;49.932;10.980;2022-09-01T07:55:58;3.40;;;2.20;;
29210;SDS011;16250;49.932;10.980;2022-09-01T07:58:30;2.55;;;2.17;;
29210;SDS011;16250;49.932;10.980;2022-09-01T08:00:57;3.35;;;1.95;;
29210;SDS011;16250;49.932;10.980;2022-09-01T08:03:26;4.40;;;2.08;;
29210;SDS011;16250;49.932;10.980;2022-09-01T08:05:52;5.50;;;2.22;;
29210;SDS011;16250;49.932;10.980;2022-09-01T08:08:21;2.83;;;1.98;;
29210;SDS011;16250;49.932;10.980;2022-09-01T08:10:47;3.95;;;2.15;;
29210;SDS011;16250;49.932;10.980;2022-09-01T08:13:13;3.30;;;2.08;;
29210;SDS011;16250;49.932;10.980;2022-09-01T08:15:39;3.38;;;1.88;;
29210;SDS011;16250;49.932;10.980;2022-09-01T08:18:05;5.68;;;2.00;;
29210;SDS011;16250;49.932;10.980;2022-09-01T08:20:31;2.95;;;2.05;;
29210;SDS011;16250;49.932;10.980;2022-09-01T08:23:01;4.65;;;2.42;;
29210;SDS011;16250;49.932;10.980;2022-09-01T08:25:28;2.30;;;2.08;;
29210;SDS011;16250;49.932;10.980;2022-09-01T08:27:54;3.17;;;2.00;;
29210;SDS011;16250;49.932;10.980;2022-09-01T08:30:20;3.60;;;2.38;;
29210;SDS011;16250;49.932;10.980;2022-09-01T08:32:49;3.80;;;2.15;;
29210;SDS011;16250;49.932;10.980;2022-09-01T08:35:15;3.13;;;2.10;;
29210;SDS011;16250;49.932;10.980;2022-09-01T08:37:41;5.20;;;2.38;;
29210;SDS011;16250;49.932;10.980;2022-09-01T08:40:07;3.30;;;2.03;;
29210;SDS011;16250;49.932;10.980;2022-09-01T08:48:35;2.78;;;1.88;;
29210;SDS011;16250;49.932;10.980;2022-09-01T08:51:11;2.88;;;1.90;;
29210;SDS011;16250;49.932;10.980;2022-09-01T08:54:09;3.65;;;2.00;;
29210;SDS011;16250;49.932;10.980;2022-09-01T08:57:31;3.20;;;2.05;;
29210;SDS011;16250;49.932;10.980;2022-09-01T08:59:42;2.45;;;2.25;;
29210;SDS011;16250;49.932;10.980;2022-09-01T09:13:56;2.58;;;2.15;;
29210;SDS011;16250;49.932;10.980;2022-09-01T09:16:24;2.85;;;1.92;;
29210;SDS011;16250;49.932;10.980;2022-09-01T09:26:51;2.63;;;2.13;;
29210;SDS011;16250;49.932;10.980;2022-09-01T09:29:18;5.13;;;2.47;;
29210;SDS011;16250;49.932;10.980;2022-09-01T09:31:48;2.92;;;1.88;;
29210;SDS011;16250;49.932;10.980;2022-09-01T09:34:40;3.38;;;1.90;;
29210;SDS011;16250;49.932;10.980;2022-09-01T09:37:20;4.13;;;2.00;;
29210;SDS011;16250;49.932;10.980;2022-09-01T09:40:31;2.97;;;2.20;;
29210;SDS011;16250;49.932;10.980;2022-09-01T09:42:41;3.30;;;2.22;;
29210;SDS011;16250;49.932;10.980;2022-09-01T09:45:23;3.65;;;2.33;;
29210;SDS011;16250;49.932;10.980;2022-09-01T09:47:52;3.08;;;2.15;;
29210;SDS011;16250;49.932;10.980;2022-09-01T09:50:25;6.60;;;2.20;;
29210;SDS011;16250;49.932;10.980;2022-09-01T09:53:08;4.68;;;2.20;;
29210;SDS011;16250;49.932;10.980;2022-09-01T09:55:36;2.80;;;2.00;;
29210;SDS011;16250;49.932;10.980;2022-09-01T09:58:15;6.10;;;2.47;;
29210;SDS011;16250;49.932;10.980;2022-09-01T10:00:41;4.65;;;2.33;;
29210;SDS011;16250;49.932;10.980;2022-09-01T10:03:56;3.78;;;2.20;;
29210;SDS011;16250;49.932;10.980;2022-09-01T10:08:55;4.90;;;2.10;;
29210;SDS011;16250;49.932;10.980;2022-09-01T10:11:27;2.42;;;2.10;;
29210;SDS011;16250;49.932;10.980;2022-09-01T10:13:53;2.47;;;2.20;;
29210;SDS011;16250;49.932;10.980;2022-09-01T10:16:24;2.55;;;2.15;;
29210;SDS011;16250;49.932;10.980;2022-09-01T10:18:57;2.15;;;1.80;;
29210;SDS011;16250;49.932;10.980;2022-09-01T10:23:58;4.68;;;2.08;;
29210;SDS011;16250;49.932;10.980;2022-09-01T10:26:34;2.10;;;1.88;;
29210;SDS011;16250;49.932;10.980;2022-09-01T10:29:05;3.40;;;2.00;;
29210;SDS011;16250;49.932;10.980;2022-09-01T10:31:38;3.08;;;1.95;;
29210;SDS011;16250;49.932;10.980;2022-09-01T10:34:05;4.97;;;2.03;;
29210;SDS011;16250;49.932;10.980;2022-09-01T10:36:36;3.60;;;2.05;;
29210;SDS011;16250;49.932;10.980;2022-09-01T10:39:06;2.58;;;1.95;;
29210;SDS011;16250;49.932;10.980;2022-09-01T10:44:32;3.38;;;2.00;;
29210;SDS011;16250;49.932;10.980;2022-09-01T10:47:10;4.60;;;2.03;;
29210;SDS011;16250;49.932;10.980;2022-09-01T10:55:16;3.22;;;1.85;;
29210;SDS011;16250;49.932;10.980;2022-09-01T11:00:50;2.25;;;1.88;;
29210;SDS011;16250;49.932;10.980;2022-09-01T11:08:20;2.45;;;1.88;;
29210;SDS011;16250;49.932;10.980;2022-09-01T11:10:52;2.72;;;2.10;;
29210;SDS011;16250;49.932;10.980;2022-09-01T11:15:50;2.17;;;1.70;;
29210;SDS011;16250;49.932;10.980;2022-09-01T11:18:25;2.35;;;1.75;;
29210;SDS011;16250;49.932;10.980;2022-09-01T11:20:53;3.33;;;1.90;;
29210;SDS011;16250;49.932;10.980;2022-09-01T11:26:00;3.20;;;2.03;;
29210;SDS011;16250;49.932;10.980;2022-09-01T11:28:45;2.10;;;1.63;;
29210;SDS011;16250;49.932;10.980;2022-09-01T11:31:31;3.58;;;1.85;;
29210;SDS011;16250;49.932;10.980;2022-09-01T11:34:12;3.25;;;1.90;;
29210;SDS011;16250;49.932;10.980;2022-09-01T11:46:57;2.35;;;1.60;;
29210;SDS011;16250;49.932;10.980;2022-09-01T11:49:45;5.13;;;1.90;;
29210;SDS011;16250;49.932;10.980;2022-09-01T11:52:17;1.92;;;1.60;;
29210;SDS011;16250;49.932;10.980;2022-09-01T11:54:44;2.95;;;2.20;;
29210;SDS011;16250;49.932;10.980;2022-09-01T11:59:42;2.35;;;1.80;;
29210;SDS011;16250;49.932;10.980;2022-09-01T12:02:09;2.60;;;1.70;;
29210;SDS011;16250;49.932;10.980;2022-09-01T12:04:52;3.53;;;2.00;;
29210;SDS011;16250;49.932;10.980;2022-09-01T12:10:37;4.97;;;1.83;;
29210;SDS011;16250;49.932;10.980;2022-09-01T12:15:31;4.85;;;2.30;;
29210;SDS011;16250;49.932;10.980;2022-09-01T12:18:09;3.38;;;1.90;;
29210;SDS011;16250;49.932;10.980;2022-09-01T12:20:43;2.75;;;1.70;;
29210;SDS011;16250;49.932;10.980;2022-09-01T12:23:16;2.15;;;1.95;;
29210;SDS011;16250;49.932;10.980;2022-09-01T12:25:46;3.88;;;2.20;;
29210;SDS011;16250;49.932;10.980;2022-09-01T12:28:12;2.88;;;1.85;;
29210;SDS011;16250;49.932;10.980;2022-09-01T12:30:39;3.65;;;2.20;;
29210;SDS011;16250;49.932;10.980;2022-09-01T12:33:09;2.38;;;2.00;;
29210;SDS011;16250;49.932;10.980;2022-09-01T12:35:36;2.90;;;2.10;;
29210;SDS011;16250;49.932;10.980;2022-09-01T12:40:50;2.63;;;1.88;;
29210;SDS011;16250;49.932;10.980;2022-09-01T12:46:00;3.65;;;2.13;;
29210;SDS011;16250;49.932;10.980;2022-09-01T12:48:32;2.40;;;2.20;;
29210;SDS011;16250;49.932;10.980;2022-09-01T12:51:04;2.60;;;1.95;;
29210;SDS011;16250;49.932;10.980;2022-09-01T12:53:48;2.50;;;1.90;;
29210;SDS011;16250;49.932;10.980;2022-09-01T12:56:32;2.22;;;1.75;;
29210;SDS011;16250;49.932;10.980;2022-09-01T12:59:41;3.60;;;1.90;;
29210;SDS011;16250;49.932;10.980;2022-09-01T13:01:49;3.15;;;2.03;;
29210;SDS011;16250;49.932;10.980;2022-09-01T13:06:55;2.28;;;1.63;;
29210;SDS011;16250;49.932;10.980;2022-09-01T13:09:27;2.05;;;1.85;;
29210;SDS011;16250;49.932;10.980;2022-09-01T13:12:00;2.80;;;1.90;;
29210;SDS011;16250;49.932;10.980;2022-09-01T13:14:34;2.42;;;1.85;;
29210;SDS011;16250;49.932;10.980;2022-09-01T13:16:59;2.88;;;1.80;;
29210;SDS011;16250;49.932;10.980;2022-09-01T13:19:25;2.90;;;2.30;;
29210;SDS011;16250;49.932;10.980;2022-09-01T13:21:50;4.55;;;2.08;;
29210;SDS011;16250;49.932;10.980;2022-09-01T13:24:16;3.85;;;2.28;;
29210;SDS011;16250;49.932;10.980;2022-09-01T13:26:42;2.28;;;2.05;;
29210;SDS011;16250;49.932;10.980;2022-09-01T13:29:10;2.20;;;2.00;;
29210;SDS011;16250;49.932;10.980;2022-09-01T13:31:35;4.07;;;2.05;;
29210;SDS011;16250;49.932;10.980;2022-09-01T13:34:01;4.10;;;1.85;;
29210;SDS011;16250;49.932;10.980;2022-09-01T13:36:27;3.45;;;1.63;;
29210;SDS011;16250;49.932;10.980;2022-09-01T13:38:52;2.30;;;1.77;;
29210;SDS011;16250;49.932;10.980;2022-09-01T13:41:18;3.33;;;1.80;;
29210;SDS011;16250;49.932;10.980;2022-09-01T13:43:43;5.10;;;1.90;;
29210;SDS011;16250;49.932;10.980;2022-09-01T13:46:11;2.72;;;2.00;;
29210;SDS011;16250;49.932;10.980;2022-09-01T13:48:36;3.92;;;2.10;;
29210;SDS011;16250;49.932;10.980;2022-09-01T13:51:02;2.25;;;1.75;;
29210;SDS011;16250;49.932;10.980;2022-09-01T13:53:28;2.20;;;1.73;;
29210;SDS011;16250;49.932;10.980;2022-09-01T13:55:54;4.05;;;2.20;;
29210;SDS011;16250;49.932;10.980;2022-09-01T13:58:19;2.83;;;1.83;;
29210;SDS011;16250;49.932;10.980;2022-09-01T14:00:45;2.13;;;1.83;;
29210;SDS011;16250;49.932;10.980;2022-09-01T14:03:16;4.03;;;1.92;;
29210;SDS011;16250;49.932;10.980;2022-09-01T14:05:44;2.15;;;1.60;;
29210;SDS011;16250;49.932;10.980;2022-09-01T14:08:12;2.22;;;1.70;;
29210;SDS011;16250;49.932;10.980;2022-09-01T14:10:41;2.72;;;1.92;;
29210;SDS011;16250;49.932;10.980;2022-09-01T14:13:09;1.95;;;1.63;;
29210;SDS011;16250;49.932;10.980;2022-09-01T14:15:36;3.22;;;2.03;;
29210;SDS011;16250;49.932;10.980;2022-09-01T14:18:02;3.10;;;1.98;;
29210;SDS011;16250;49.932;10.980;2022-09-01T14:20:30;2.35;;;1.73;;
29210;SDS011;16250;49.932;10.980;2022-09-01T14:23:03;2.83;;;1.77;;
29210;SDS011;16250;49.932;10.980;2022-09-01T14:25:31;4.75;;;2.03;;
29210;SDS011;16250;49.932;10.980;2022-09-01T14:27:58;2.35;;;2.00;;
29210;SDS011;16250;49.932;10.980;2022-09-01T14:30:25;2.58;;;1.85;;
29210;SDS011;16250;49.932;10.980;2022-09-01T14:32:52;3.63;;;1.80;;
29210;SDS011;16250;49.932;10.980;2022-09-01T14:35:19;2.53;;;1.70;;
29210;SDS011;16250;49.932;10.980;2022-09-01T14:37:48;4.63;;;1.77;;
29210;SDS011;16250;49.932;10.980;2022-09-01T14:40:15;2.42;;;1.60;;
29210;SDS011;16250;49.932;10.980;2022-09-01T14:42:42;3.65;;;2.00;;
29210;SDS011;16250;49.932;10.980;2022-09-01T14:45:13;2.72;;;1.90;;
29210;SDS011;16250;49.932;10.980;2022-09-01T14:47:48;2.67;;;1.77;;
29210;SDS011;16250;49.932;10.980;2022-09-01T14:50:15;2.63;;;1.80;;
29210;SDS011;16250;49.932;10.980;2022-09-01T14:52:43;3.13;;;2.00;;
29210;SDS011;16250;49.932;10.980;2022-09-01T14:55:09;2.65;;;1.80;;
29210;SDS011;16250;49.932;10.980;2022-09-01T14:57:35;1.83;;;1.60;;
29210;SDS011;16250;49.932;10.980;2022-09-01T15:00:01;3.25;;;1.80;;
29210;SDS011;16250;49.932;10.980;2022-09-01T15:02:28;3.42;;;1.70;;
29210;SDS011;16250;49.932;10.980;2022-09-01T15:04:54;3.00;;;1.70;;
29210;SDS011;16250;49.932;10.980;2022-09-01T15:07:21;2.58;;;1.67;;
29210;SDS011;16250;49.932;10.980;2022-09-01T15:09:47;2.97;;;1.70;;
29210;SDS011;16250;49.932;10.980;2022-09-01T15:12:12;1.90;;;1.60;;
29210;SDS011;16250;49.932;10.980;2022-09-01T15:14:38;1.80;;;1.70;;
29210;SDS011;16250;49.932;10.980;2022-09-01T15:17:04;3.10;;;1.70;;
29210;SDS011;16250;49.932;10.980;2022-09-01T15:19:30;2.90;;;1.85;;
29210;SDS011;16250;49.932;10.980;2022-09-01T15:21:56;2.17;;;1.90;;
29210;SDS011;16250;49.932;10.980;2022-09-01T15:24:22;1.95;;;1.80;;
29210;SDS011;16250;49.932;10.980;2022-09-01T15:26:48;2.38;;;1.70;;
29210;SDS011;16250;49.932;10.980;2022-09-01T15:29:13;2.15;;;1.50;;
29210;SDS011;16250;49.932;10.980;2022-09-01T15:31:40;2.30;;;1.83;;
29210;SDS011;16250;49.932;10.980;2022-09-01T15:34:07;2.55;;;2.00;;
29210;SDS011;16250;49.932;10.980;2022-09-01T15:36:34;3.05;;;2.10;;
29210;SDS011;16250;49.932;10.980;2022-09-01T15:39:03;2.72;;;2.05;;
29210;SDS011;16250;49.932;10.980;2022-09-01T15:41:30;2.28;;;1.50;;
29210;SDS011;16250;49.932;10.980;2022-09-01T15:43:57;1.58;;;1.48;;
29210;SDS011;16250;49.932;10.980;2022-09-01T15:46:24;2.40;;;1.55;;
29210;SDS011;16250;49.932;10.980;2022-09-01T15:48:56;4.30;;;1.80;;
29210;SDS011;16250;49.932;10.980;2022-09-01T15:51:30;2.75;;;1.80;;
29210;SDS011;16250;49.932;10.980;2022-09-01T15:54:03;3.15;;;1.63;;
29210;SDS011;16250;49.932;10.980;2022-09-01T15:56:31;2.83;;;1.80;;
29210;SDS011;16250;49.932;10.980;2022-09-01T15:58:58;2.65;;;1.80;;
29210;SDS011;16250;49.932;10.980;2022-09-01T16:01:25;2.78;;;1.60;;
29210;SDS011;16250;49.932;10.980;2022-09-01T16:03:52;4.60;;;1.70;;
29210;SDS011;16250;49.932;10.980;2022-09-01T16:06:18;2.22;;;1.80;;
29210;SDS011;16250;49.932;10.980;2022-09-01T16:08:44;3.30;;;1.70;;